Аэропорт: Нахичевань. Нахичевань

ICAO: UBBN

METAR:
2018/11/19 10:00
UBBN 191000Z 27004KT 9999 NSC 10/M02 Q1022 R14R/CLRD// NOSIG RMK MT OP QFE691
METAR:
2018/11/19 06:00
TAF UBBN 190506Z 1906/2006 VRB04KT 9999 FEW050 SCT100 TX11/1912Z TN01/2003Z 
      TEMPO 1906/1914 25010KT